createdAt,value
2022-09-05T00:02:04.117Z,15.25
2022-09-05T00:04:58.278Z,15.31
2022-09-05T00:07:58.378Z,15.40
2022-09-05T00:10:37.261Z,15.20
2022-09-05T00:13:09.878Z,15.18
2022-09-05T00:15:48.480Z,15.25
2022-09-05T00:23:29.025Z,15.10
2022-09-05T00:24:30.243Z,15.23
2022-09-05T00:24:54.767Z,15.04
2022-09-05T00:27:51.096Z,14.92
2022-09-05T00:31:08.795Z,15.00
2022-09-05T00:33:17.898Z,15.09
2022-09-05T00:35:53.460Z,15.01
2022-09-05T00:38:32.135Z,14.99
2022-09-05T00:41:13.373Z,14.90
2022-09-05T00:43:48.061Z,14.88
2022-09-05T00:46:37.079Z,14.67
2022-09-05T00:49:40.229Z,14.83
2022-09-05T00:52:30.764Z,14.85
2022-09-05T00:55:05.997Z,14.73
2022-09-05T00:57:50.545Z,14.64
2022-09-05T01:00:35.808Z,14.54
2022-09-05T01:03:29.858Z,14.70
2022-09-05T01:10:03.391Z,14.69
2022-09-05T01:12:57.854Z,14.67
2022-09-05T01:15:33.229Z,14.74
2022-09-05T01:18:07.993Z,14.61
2022-09-05T01:20:40.254Z,14.72
2022-09-05T01:23:24.796Z,14.50
2022-09-05T01:26:06.723Z,14.51
2022-09-05T01:29:16.254Z,14.57
2022-09-05T01:31:34.395Z,14.40
2022-09-05T01:34:31.437Z,14.49
2022-09-05T01:37:03.291Z,14.36
2022-09-05T01:40:14.903Z,14.25
2022-09-05T01:43:25.673Z,14.30
2022-09-05T01:45:59.290Z,14.27
2022-09-05T01:48:30.247Z,14.34
2022-09-05T01:51:29.479Z,14.11
2022-09-05T01:54:25.579Z,14.27
2022-09-05T01:57:21.142Z,14.32
2022-09-05T02:00:08.980Z,14.30
2022-09-05T02:02:50.428Z,14.21
2022-09-05T02:05:53.702Z,14.30
2022-09-05T02:08:57.378Z,14.15
2022-09-05T02:11:52.633Z,14.10
2022-09-05T02:14:27.064Z,14.22
2022-09-05T02:17:27.243Z,14.18
2022-09-05T02:20:30.095Z,14.08
2022-09-05T02:22:56.498Z,14.13
2022-09-05T02:26:02.024Z,14.00
2022-09-05T02:28:51.245Z,14.00
2022-09-05T02:31:34.095Z,14.14
2022-09-05T02:34:11.927Z,14.04
2022-09-05T02:37:10.853Z,13.94
2022-09-05T02:45:00.456Z,13.93
2022-09-05T02:45:09.926Z,13.96
2022-09-05T02:45:44.671Z,14.10
2022-09-05T02:48:27.722Z,13.85
2022-09-05T02:57:30.047Z,14.04
2022-09-05T02:57:42.483Z,13.82
2022-09-05T02:58:06.202Z,13.97
2022-09-05T03:00:21.217Z,13.81
2022-09-05T03:03:26.108Z,13.82
2022-09-05T03:06:06.033Z,13.81
2022-09-05T03:09:09.839Z,13.68
2022-09-05T03:12:00.002Z,13.62
2022-09-05T03:15:18.704Z,13.62
2022-09-05T03:18:31.704Z,13.53
2022-09-05T03:21:20.095Z,13.56
2022-09-05T03:23:55.484Z,13.57
2022-09-05T03:26:43.519Z,13.55
2022-09-05T03:29:47.622Z,13.46
2022-09-05T03:32:28.413Z,13.63
2022-09-05T03:35:33.152Z,13.44
2022-09-05T03:38:22.234Z,13.52
2022-09-05T03:41:30.250Z,13.54
2022-09-05T03:44:48.989Z,13.49
2022-09-05T03:47:47.422Z,13.54
2022-09-05T03:57:06.232Z,13.59
2022-09-05T03:57:16.380Z,13.38
2022-09-05T03:57:23.406Z,13.50
2022-09-05T03:59:53.642Z,13.43
2022-09-05T04:05:28.406Z,13.50
2022-09-05T04:08:16.627Z,13.34
2022-09-05T04:08:42.425Z,13.34
2022-09-05T04:11:17.284Z,13.23
2022-09-05T04:13:52.335Z,13.31
2022-09-05T04:16:18.847Z,13.36
2022-09-05T04:18:51.718Z,13.18
2022-09-05T04:21:29.240Z,13.22
2022-09-05T04:24:14.219Z,13.16
2022-09-05T04:26:46.701Z,13.27
2022-09-05T04:29:31.149Z,13.17
2022-09-05T04:32:23.852Z,13.27
2022-09-05T04:35:04.266Z,13.36
2022-09-05T04:37:55.073Z,13.25
2022-09-05T04:40:39.407Z,13.20
2022-09-05T04:43:24.957Z,13.24
2022-09-05T04:45:58.484Z,13.30
2022-09-05T04:48:34.146Z,13.32
2022-09-05T04:51:12.965Z,13.31
2022-09-05T04:54:16.900Z,13.48
2022-09-05T04:56:49.369Z,13.36
2022-09-05T05:01:42.070Z,13.32
2022-09-05T05:06:09.768Z,13.43
2022-09-05T05:06:16.109Z,13.23
2022-09-05T05:08:43.597Z,13.21
2022-09-05T05:17:40.367Z,13.31
2022-09-05T05:18:01.254Z,13.20
2022-09-05T05:18:36.728Z,13.24
2022-09-05T05:21:08.019Z,13.33
2022-09-05T05:23:56.432Z,13.24
2022-09-05T05:26:29.582Z,13.37
2022-09-05T05:29:01.040Z,13.42
2022-09-05T05:31:31.971Z,13.61
2022-09-05T05:34:06.136Z,13.67
2022-09-05T05:37:25.235Z,13.46
2022-09-05T05:40:04.108Z,13.62
2022-09-05T05:42:31.155Z,13.63
2022-09-05T05:44:59.132Z,13.66
2022-09-05T05:47:49.373Z,13.65
2022-09-05T05:50:33.545Z,13.59
2022-09-05T05:53:40.982Z,13.53
2022-09-05T05:56:32.183Z,13.75
2022-09-05T05:59:18.465Z,13.82
2022-09-05T06:02:15.065Z,13.47
2022-09-05T06:05:03.783Z,13.46
2022-09-05T06:10:39.075Z,13.61
2022-09-05T06:14:48.308Z,13.81
2022-09-05T06:15:06.397Z,14.03
2022-09-05T06:16:43.283Z,13.96
2022-09-05T06:19:18.826Z,14.07
2022-09-05T06:22:09.121Z,14.32
2022-09-05T06:25:16.266Z,14.29
2022-09-05T06:28:18.129Z,14.24
2022-09-05T06:31:21.179Z,14.51
2022-09-05T06:33:48.871Z,14.79
2022-09-05T06:36:52.427Z,15.17
2022-09-05T06:39:40.969Z,15.43
2022-09-05T06:42:50.515Z,15.60
2022-09-05T06:45:46.672Z,15.58
2022-09-05T06:48:45.695Z,15.85
2022-09-05T06:51:35.670Z,16.47
2022-09-05T06:54:07.788Z,16.12
2022-09-05T06:57:04.687Z,16.16
2022-09-05T07:00:19.575Z,16.07
2022-09-05T07:03:30.608Z,16.27
2022-09-05T07:06:49.439Z,16.30
2022-09-05T07:09:44.834Z,15.87
2022-09-05T07:12:23.758Z,15.82
2022-09-05T07:15:16.673Z,16.15
2022-09-05T07:18:10.431Z,16.76
2022-09-05T07:21:15.748Z,17.04
2022-09-05T07:24:09.159Z,16.66
2022-09-05T07:26:54.167Z,16.65
2022-09-05T07:29:53.442Z,16.97
2022-09-05T07:32:31.725Z,17.18
2022-09-05T07:35:02.462Z,17.45
2022-09-05T07:37:44.222Z,17.09
2022-09-05T07:40:25.735Z,17.28
2022-09-05T07:43:18.720Z,17.22
2022-09-05T07:45:58.153Z,17.76
2022-09-05T07:48:34.881Z,17.74
2022-09-05T07:56:19.190Z,18.05
2022-09-05T07:56:50.756Z,18.52
2022-09-05T07:59:50.828Z,18.96
2022-09-05T08:02:17.437Z,19.50
2022-09-05T08:04:44.639Z,19.86
2022-09-05T08:07:47.650Z,19.38
2022-09-05T08:10:15.670Z,18.81
2022-09-05T08:13:23.800Z,19.44
2022-09-05T08:16:09.701Z,19.24
2022-09-05T08:19:04.077Z,19.60
2022-09-05T08:21:42.461Z,19.61
2022-09-05T08:24:36.622Z,19.90
2022-09-05T08:27:24.746Z,20.14
2022-09-05T08:30:26.559Z,20.86
2022-09-05T08:33:11.034Z,21.40
2022-09-05T08:36:00.704Z,20.77
2022-09-05T08:38:37.420Z,21.06
2022-09-05T08:41:43.117Z,21.75
2022-09-05T08:46:40.816Z,21.26
2022-09-05T08:47:45.022Z,21.79
2022-09-05T08:50:53.997Z,21.70
2022-09-05T08:54:05.478Z,22.19
2022-09-05T08:56:44.178Z,22.47
2022-09-05T08:59:31.741Z,22.97
2022-09-05T09:02:46.519Z,22.10
2022-09-05T09:05:14.144Z,22.11
2022-09-05T09:08:15.803Z,20.86
2022-09-05T09:10:59.405Z,20.69
2022-09-05T09:13:54.742Z,20.56
2022-09-05T09:16:34.017Z,20.89
2022-09-05T09:19:16.862Z,21.93
2022-09-05T09:21:47.621Z,22.18
2022-09-05T09:24:39.334Z,22.62
2022-09-05T09:27:09.254Z,22.79
2022-09-05T09:29:39.922Z,23.48
2022-09-05T09:32:17.317Z,23.68
2022-09-05T09:35:06.324Z,22.99
2022-09-05T09:37:55.351Z,23.03
2022-09-05T09:41:00.616Z,23.76
2022-09-05T09:44:13.763Z,24.00
2022-09-05T09:46:46.250Z,23.52
2022-09-05T09:49:33.870Z,24.55
2022-09-05T09:52:20.824Z,24.89
2022-09-05T09:55:28.639Z,25.67
2022-09-05T09:58:09.585Z,25.17
2022-09-05T10:00:51.136Z,24.97
2022-09-05T10:10:35.429Z,25.44
2022-09-05T10:10:47.955Z,26.86
2022-09-05T10:11:04.023Z,25.47
2022-09-05T10:13:41.393Z,26.07
2022-09-05T10:16:27.302Z,26.92
2022-09-05T10:19:15.585Z,25.81
2022-09-05T10:25:12.152Z,24.73
2022-09-05T10:28:13.845Z,24.41
2022-09-05T10:32:52.029Z,24.30
2022-09-05T10:35:17.978Z,24.43
2022-09-05T10:36:23.418Z,25.18
2022-09-05T10:39:07.979Z,25.78
2022-09-05T10:42:02.668Z,25.15
2022-09-05T10:44:53.694Z,24.49
2022-09-05T10:47:35.759Z,24.25
2022-09-05T10:50:20.811Z,24.25
2022-09-05T10:52:50.000Z,24.81
2022-09-05T10:55:57.303Z,24.77
2022-09-05T11:01:33.379Z,24.05
2022-09-05T11:02:27.976Z,23.16
2022-09-05T11:04:56.189Z,23.15
2022-09-05T11:07:39.860Z,23.69
2022-09-05T11:10:09.167Z,24.11
2022-09-05T11:13:00.016Z,24.01
2022-09-05T11:16:03.681Z,23.40
2022-09-05T11:18:57.666Z,23.71
2022-09-05T11:21:43.041Z,24.00
2022-09-05T11:24:31.815Z,23.79
2022-09-05T11:27:24.425Z,23.65
2022-09-05T11:29:58.155Z,23.93
2022-09-05T11:36:27.595Z,25.14
2022-09-05T11:39:47.013Z,25.71
2022-09-05T11:40:26.594Z,26.26
2022-09-05T11:41:25.114Z,26.99
2022-09-05T11:44:25.054Z,27.33
2022-09-05T11:47:30.201Z,27.37
2022-09-05T11:50:27.603Z,27.74
2022-09-05T11:53:47.953Z,29.17
2022-09-05T11:56:45.882Z,27.75
2022-09-05T11:59:39.876Z,25.25
2022-09-05T12:02:49.543Z,24.87
2022-09-05T12:05:50.216Z,25.95
2022-09-05T12:08:46.555Z,25.91
2022-09-05T12:11:53.475Z,24.23
2022-09-05T12:14:36.223Z,22.81
2022-09-05T12:17:35.402Z,22.89
2022-09-05T12:20:27.996Z,23.17
2022-09-05T12:23:51.407Z,22.89
2022-09-05T12:27:40.396Z,22.48
2022-09-05T12:29:33.553Z,22.47
2022-09-05T12:33:32.310Z,22.95
2022-09-05T12:36:12.860Z,24.09
2022-09-05T12:40:55.409Z,24.97
2022-09-05T12:41:44.797Z,24.14
2022-09-05T12:44:39.772Z,24.43
2022-09-05T12:46:53.564Z,24.72
2022-09-05T12:49:20.017Z,24.18
2022-09-05T12:52:00.259Z,23.77
2022-09-05T12:54:34.666Z,22.77
2022-09-05T13:02:22.255Z,23.41
2022-09-05T13:03:06.813Z,22.81
2022-09-05T13:03:27.923Z,21.99
2022-09-05T13:06:10.455Z,21.59
2022-09-05T13:09:00.293Z,21.41
2022-09-05T13:14:57.657Z,21.78
2022-09-05T13:15:08.095Z,21.37
2022-09-05T13:17:15.712Z,21.40
2022-09-05T13:19:51.634Z,21.41
2022-09-05T13:22:21.425Z,21.39
2022-09-05T13:24:58.497Z,21.20
2022-09-05T13:27:31.890Z,21.46
2022-09-05T13:33:01.947Z,21.61
2022-09-05T13:38:13.076Z,21.28
2022-09-05T13:38:28.979Z,21.42
2022-09-05T13:39:10.873Z,21.83
2022-09-05T13:41:51.092Z,21.52
2022-09-05T13:44:26.337Z,21.76
2022-09-05T13:47:51.823Z,22.35
2022-09-05T13:50:43.958Z,22.38
2022-09-05T13:53:46.229Z,22.67
2022-09-05T13:56:23.787Z,22.70
2022-09-05T13:59:04.498Z,22.72
2022-09-05T14:02:24.485Z,22.64
2022-09-05T14:05:13.658Z,22.01
2022-09-05T14:07:56.134Z,22.16
2022-09-05T14:10:35.652Z,22.12
2022-09-05T14:13:15.945Z,22.16
2022-09-05T14:15:55.588Z,21.40
2022-09-05T14:19:12.516Z,21.66
2022-09-05T14:21:42.008Z,21.56
2022-09-05T14:24:17.428Z,21.50
2022-09-05T14:27:00.398Z,21.47
2022-09-05T14:29:38.927Z,21.95
2022-09-05T14:37:34.567Z,21.55
2022-09-05T14:37:40.491Z,21.74
2022-09-05T14:38:29.099Z,21.30
2022-09-05T14:41:28.276Z,21.24
2022-09-05T14:44:10.435Z,21.24
2022-09-05T14:47:02.673Z,21.34
2022-09-05T14:50:07.159Z,21.31
2022-09-05T14:52:43.328Z,21.37
2022-09-05T15:02:44.985Z,21.38
2022-09-05T15:02:50.864Z,21.81
2022-09-05T15:06:37.252Z,21.41
2022-09-05T15:12:16.353Z,21.54
2022-09-05T15:12:21.805Z,21.84
2022-09-05T15:15:19.062Z,21.45
2022-09-05T15:17:51.141Z,21.77
2022-09-05T15:20:33.554Z,21.85
2022-09-05T15:23:11.064Z,22.00
2022-09-05T15:25:48.345Z,21.64
2022-09-05T15:28:30.955Z,21.53
2022-09-05T15:31:00.799Z,21.54
2022-09-05T15:33:30.048Z,21.47
2022-09-05T15:35:58.271Z,21.74
2022-09-05T15:38:30.772Z,21.84
2022-09-05T15:41:20.618Z,21.58
2022-09-05T15:43:51.954Z,21.73
2022-09-05T15:46:24.785Z,21.61
2022-09-05T15:48:58.372Z,21.77
2022-09-05T15:51:50.626Z,21.32
2022-09-05T15:54:44.418Z,21.27
2022-09-05T15:57:21.302Z,21.14
2022-09-05T15:59:52.894Z,21.09
2022-09-05T16:02:26.442Z,21.43
2022-09-05T16:10:34.229Z,21.58
2022-09-05T16:10:39.493Z,21.31
2022-09-05T16:11:57.891Z,21.08
2022-09-05T16:14:39.397Z,21.08
2022-09-05T16:23:13.392Z,21.27
2022-09-05T16:23:32.266Z,21.24
2022-09-05T16:23:45.901Z,21.27
2022-09-05T16:26:25.684Z,21.14
2022-09-05T16:29:06.959Z,20.95
2022-09-05T16:31:51.401Z,21.12
2022-09-05T16:34:38.902Z,21.26
2022-09-05T16:37:19.740Z,21.24
2022-09-05T16:40:05.554Z,20.98
2022-09-05T16:42:47.840Z,20.77
2022-09-05T16:45:20.889Z,20.98
2022-09-05T16:48:10.252Z,20.89
2022-09-05T16:50:51.553Z,20.74
2022-09-05T16:53:30.373Z,21.00
2022-09-05T16:56:02.802Z,20.71
2022-09-05T16:58:50.449Z,20.82
2022-09-05T17:01:55.004Z,20.68
2022-09-05T17:05:04.985Z,20.86
2022-09-05T17:08:09.118Z,20.72
2022-09-05T17:11:03.494Z,20.63
2022-09-05T17:13:40.401Z,20.49
2022-09-05T17:16:11.983Z,20.30
2022-09-05T17:18:38.680Z,20.37
2022-09-05T17:21:18.804Z,20.50
2022-09-05T17:29:15.518Z,20.39
2022-09-05T17:29:27.753Z,20.29
2022-09-05T17:32:57.705Z,20.47
2022-09-05T17:35:53.777Z,20.23
2022-09-05T17:38:51.719Z,20.22
2022-09-05T17:41:53.708Z,20.20
2022-09-05T17:44:26.304Z,20.37
2022-09-05T17:47:07.138Z,20.14
2022-09-05T17:49:47.639Z,20.12
2022-09-05T17:52:16.609Z,19.91
2022-09-05T17:54:50.245Z,20.01
2022-09-05T17:57:28.844Z,20.06
2022-09-05T18:00:11.945Z,19.98
2022-09-05T18:02:56.903Z,20.01
2022-09-05T18:06:03.678Z,19.87
2022-09-05T18:08:49.939Z,19.92
2022-09-05T18:11:25.477Z,19.93
2022-09-05T18:14:24.631Z,19.80
2022-09-05T18:17:36.275Z,19.68
2022-09-05T18:19:44.000Z,19.72
2022-09-05T18:22:30.732Z,19.66
2022-09-05T18:25:13.873Z,19.46
2022-09-05T18:28:05.350Z,19.48
2022-09-05T18:33:53.510Z,19.50
2022-09-05T18:35:57.746Z,19.52
2022-09-05T18:38:50.802Z,19.53
2022-09-05T18:41:18.395Z,19.51
2022-09-05T18:44:12.095Z,19.54
2022-09-05T18:46:43.222Z,19.47
2022-09-05T18:50:24.292Z,19.39
2022-09-05T18:52:30.163Z,19.32
2022-09-05T18:56:09.339Z,19.26
2022-09-05T18:58:04.374Z,19.25
2022-09-05T19:00:43.959Z,19.16
2022-09-05T19:03:28.832Z,19.11
2022-09-05T19:06:35.090Z,18.93
2022-09-05T19:09:02.339Z,18.94
2022-09-05T19:11:32.018Z,18.82
2022-09-05T19:14:25.972Z,18.85
2022-09-05T19:17:01.387Z,18.74
2022-09-05T19:19:31.310Z,18.85
2022-09-05T19:22:49.986Z,18.83
2022-09-05T19:24:48.818Z,18.83
2022-09-05T19:32:26.904Z,18.73
2022-09-05T19:36:55.343Z,18.75
2022-09-05T19:36:57.533Z,18.92
2022-09-05T19:37:06.618Z,18.76
2022-09-05T19:39:15.338Z,18.62
2022-09-05T19:47:25.845Z,18.49
2022-09-05T19:47:40.611Z,18.57
2022-09-05T19:47:48.039Z,18.42
2022-09-05T19:49:58.003Z,18.45
2022-09-05T19:52:24.697Z,18.56
2022-09-05T19:54:54.785Z,18.35
2022-09-05T19:57:21.507Z,18.42
2022-09-05T19:59:54.129Z,18.49
2022-09-05T20:02:26.900Z,18.42
2022-09-05T20:04:57.263Z,18.41
2022-09-05T20:07:26.629Z,18.37
2022-09-05T20:09:55.707Z,18.44
2022-09-05T20:12:28.080Z,18.27
2022-09-05T20:14:54.815Z,18.13
2022-09-05T20:17:31.059Z,18.09
2022-09-05T20:20:25.435Z,18.09
2022-09-05T20:22:59.412Z,18.13
2022-09-05T20:25:36.807Z,18.21
2022-09-05T20:28:12.884Z,18.06
2022-09-05T20:30:50.820Z,18.09
2022-09-05T20:33:29.462Z,17.87
2022-09-05T20:42:12.077Z,17.80
2022-09-05T20:43:20.296Z,17.77
2022-09-05T20:43:21.590Z,17.76
2022-09-05T20:44:48.479Z,17.67
2022-09-05T20:51:29.507Z,17.80
2022-09-05T20:54:18.234Z,17.56
2022-09-05T20:54:27.128Z,17.51
2022-09-05T20:56:07.784Z,17.54
2022-09-05T20:58:37.126Z,17.50
2022-09-05T21:01:21.554Z,17.35
2022-09-05T21:04:03.196Z,17.36
2022-09-05T21:06:37.171Z,17.32
2022-09-05T21:09:24.314Z,17.16
2022-09-05T21:11:55.730Z,17.36
2022-09-05T21:14:24.406Z,17.27
2022-09-05T21:17:15.798Z,17.37
2022-09-05T21:19:53.410Z,17.15
2022-09-05T21:22:20.782Z,17.21
2022-09-05T21:24:48.109Z,17.18
2022-09-05T21:27:22.965Z,17.09
2022-09-05T21:29:59.326Z,17.16
2022-09-05T21:32:37.946Z,17.06
2022-09-05T21:35:31.118Z,17.17
2022-09-05T21:37:56.568Z,16.92
2022-09-05T21:40:23.408Z,16.99
2022-09-05T21:47:05.519Z,16.89
2022-09-05T21:47:40.638Z,16.96
2022-09-05T21:48:24.314Z,16.78
2022-09-05T21:50:50.969Z,16.75
2022-09-05T21:59:13.600Z,16.62
2022-09-05T21:59:17.483Z,16.80
2022-09-05T21:59:29.498Z,16.65
2022-09-05T22:01:53.155Z,16.43
2022-09-05T22:04:21.089Z,16.57
2022-09-05T22:06:48.773Z,16.53
2022-09-05T22:09:17.810Z,16.32
2022-09-05T22:11:49.993Z,16.43
2022-09-05T22:14:18.231Z,16.41
2022-09-05T22:16:47.283Z,16.31
2022-09-05T22:19:21.355Z,16.29
2022-09-05T22:21:50.098Z,16.07
2022-09-05T22:24:17.014Z,16.22
2022-09-05T22:27:11.124Z,16.20
2022-09-05T22:29:34.937Z,16.00
2022-09-05T22:32:01.646Z,15.97
2022-09-05T22:34:28.159Z,16.04
2022-09-05T22:36:56.056Z,16.16
2022-09-05T22:39:36.233Z,15.84
2022-09-05T22:42:10.346Z,16.03
2022-09-05T22:44:39.465Z,15.95
2022-09-05T22:47:07.818Z,15.92
2022-09-05T22:49:36.376Z,15.69
2022-09-05T22:52:07.731Z,15.81
2022-09-05T22:54:35.835Z,16.00
2022-09-05T22:57:03.664Z,15.78
2022-09-05T22:59:30.373Z,15.73
2022-09-05T23:01:57.055Z,15.69
2022-09-05T23:04:23.851Z,15.56
2022-09-05T23:06:50.387Z,15.84
2022-09-05T23:09:16.974Z,15.47
2022-09-05T23:11:43.501Z,15.63
2022-09-05T23:14:10.043Z,15.68
2022-09-05T23:16:36.532Z,15.53
2022-09-05T23:19:03.024Z,15.52
2022-09-05T23:21:29.558Z,15.52
2022-09-05T23:23:56.103Z,15.56
2022-09-05T23:26:22.569Z,15.36
2022-09-05T23:28:49.091Z,15.18
2022-09-05T23:31:15.661Z,15.44
2022-09-05T23:33:42.191Z,15.40
2022-09-05T23:36:13.517Z,15.34
2022-09-05T23:38:42.159Z,15.32
2022-09-05T23:41:12.135Z,15.25
2022-09-05T23:43:38.648Z,15.25
2022-09-05T23:46:05.464Z,15.12
2022-09-05T23:48:32.265Z,15.08
2022-09-05T23:51:13.586Z,15.12
2022-09-05T23:53:40.827Z,15.14
2022-09-05T23:56:09.367Z,15.04
2022-09-05T23:58:36.808Z,15.11
